createdAt,value
2019-05-11T00:01:02.148Z,11.95
2019-05-11T00:03:29.818Z,12.04
2019-05-11T00:05:56.726Z,11.99
2019-05-11T00:08:23.648Z,12.00
2019-05-11T00:10:50.516Z,11.95
2019-05-11T00:13:17.430Z,11.95
2019-05-11T00:15:44.290Z,11.99
2019-05-11T00:18:11.371Z,11.97
2019-05-11T00:20:38.224Z,11.98
2019-05-11T00:23:05.167Z,12.01
2019-05-11T00:25:32.015Z,12.02
2019-05-11T00:27:58.826Z,12.08
2019-05-11T00:30:25.855Z,12.06
2019-05-11T00:32:52.684Z,12.04
2019-05-11T00:35:19.674Z,12.08
2019-05-11T00:37:46.503Z,12.07
2019-05-11T00:40:15.125Z,12.12
2019-05-11T00:42:42.568Z,12.06
2019-05-11T00:45:09.868Z,12.09
2019-05-11T00:47:36.870Z,12.08
2019-05-11T00:50:09.411Z,12.13
2019-05-11T00:52:36.628Z,12.07
2019-05-11T00:55:07.384Z,12.03
2019-05-11T00:57:34.157Z,12.10
2019-05-11T01:00:01.099Z,12.16
2019-05-11T01:02:28.117Z,12.16
2019-05-11T01:04:55.334Z,12.10
2019-05-11T01:07:22.120Z,12.17
2019-05-11T01:09:49.322Z,12.16
2019-05-11T01:12:16.211Z,12.12
2019-05-11T01:14:43.413Z,12.08
2019-05-11T01:17:10.290Z,12.09
2019-05-11T01:19:37.841Z,12.12
2019-05-11T01:22:04.630Z,12.20
2019-05-11T01:24:31.463Z,12.13
2019-05-11T01:26:58.295Z,12.14
2019-05-11T01:29:25.160Z,12.03
2019-05-11T01:31:51.962Z,12.05
2019-05-11T01:34:18.787Z,12.02
2019-05-11T01:36:45.949Z,12.01
2019-05-11T01:39:12.752Z,11.88
2019-05-11T01:41:39.765Z,11.82
2019-05-11T01:44:06.606Z,11.81
2019-05-11T01:46:33.569Z,11.79
2019-05-11T01:49:00.817Z,11.71
2019-05-11T01:51:27.726Z,11.75
2019-05-11T01:53:54.509Z,11.80
2019-05-11T01:56:21.322Z,11.87
2019-05-11T01:58:48.212Z,11.80
2019-05-11T02:01:15.071Z,11.87
2019-05-11T02:03:42.283Z,11.76
2019-05-11T02:06:09.208Z,11.91
2019-05-11T02:08:36.038Z,11.88
2019-05-11T02:11:15.608Z,11.96
2019-05-11T02:13:32.275Z,11.94
2019-05-11T02:15:59.509Z,11.94
2019-05-11T02:18:26.403Z,11.94
2019-05-11T02:20:53.857Z,11.91
2019-05-11T02:23:21.065Z,11.92
2019-05-11T02:25:47.852Z,11.81
2019-05-11T02:28:14.588Z,11.78
2019-05-11T02:30:41.398Z,11.73
2019-05-11T02:33:08.587Z,11.82
2019-05-11T02:35:35.364Z,11.90
2019-05-11T02:38:02.588Z,11.95
2019-05-11T02:40:29.776Z,11.93
2019-05-11T02:42:56.607Z,11.95
2019-05-11T02:45:39.397Z,11.91
2019-05-11T02:48:07.425Z,11.86
2019-05-11T02:50:37.016Z,11.83
2019-05-11T02:53:04.789Z,11.87
2019-05-11T02:55:34.790Z,11.88
2019-05-11T02:58:03.458Z,11.89
2019-05-11T03:00:40.971Z,11.95
2019-05-11T03:03:08.043Z,11.98
2019-05-11T03:05:35.125Z,11.91
2019-05-11T03:08:02.192Z,11.87
2019-05-11T03:10:28.978Z,11.84
2019-05-11T03:12:56.171Z,11.90
2019-05-11T03:15:23.141Z,11.97
2019-05-11T03:17:50.304Z,12.02
2019-05-11T03:20:19.076Z,11.96
2019-05-11T03:22:46.074Z,11.94
2019-05-11T03:25:13.082Z,11.94
2019-05-11T03:27:40.288Z,11.93
2019-05-11T03:30:08.044Z,11.94
2019-05-11T03:32:34.796Z,11.94
2019-05-11T03:35:01.900Z,12.04
2019-05-11T03:37:28.765Z,12.09
2019-05-11T03:39:55.745Z,12.05
2019-05-11T03:42:22.593Z,12.02
2019-05-11T03:44:49.938Z,11.96
2019-05-11T03:47:16.691Z,11.90
2019-05-11T03:49:43.451Z,11.92
2019-05-11T03:52:10.411Z,11.99
2019-05-11T03:54:37.151Z,12.00
2019-05-11T03:57:04.290Z,12.02
2019-05-11T03:59:31.040Z,11.95
2019-05-11T04:01:57.918Z,11.83
2019-05-11T04:04:24.658Z,11.81
2019-05-11T04:06:51.442Z,11.88
2019-05-11T04:09:18.179Z,11.88
2019-05-11T04:11:44.973Z,11.82
2019-05-11T04:14:12.081Z,11.84
2019-05-11T04:16:38.842Z,11.86
2019-05-11T04:19:05.952Z,11.83
2019-05-11T04:21:32.845Z,11.83
2019-05-11T04:23:59.711Z,11.83
2019-05-11T04:26:26.490Z,11.82
2019-05-11T04:28:53.260Z,11.81
2019-05-11T04:31:20.158Z,11.81
2019-05-11T04:33:46.912Z,11.84
2019-05-11T04:36:15.999Z,11.86
2019-05-11T04:38:42.772Z,11.86
2019-05-11T04:41:09.897Z,11.88
2019-05-11T04:43:36.699Z,11.91
2019-05-11T04:46:03.620Z,11.83
2019-05-11T04:48:30.434Z,11.87
2019-05-11T04:50:57.178Z,11.85
2019-05-11T04:53:23.951Z,11.79
2019-05-11T04:55:50.740Z,11.82
2019-05-11T04:58:17.682Z,11.83
2019-05-11T05:00:44.583Z,11.85
2019-05-11T05:03:12.041Z,11.88
2019-05-11T05:05:39.190Z,11.94
2019-05-11T05:08:09.545Z,11.99
2019-05-11T05:10:34.629Z,12.02
2019-05-11T05:13:10.097Z,12.06
2019-05-11T05:15:30.619Z,12.10
2019-05-11T05:17:57.391Z,12.16
2019-05-11T05:20:24.446Z,12.20
2019-05-11T05:22:51.598Z,12.17
2019-05-11T05:25:18.352Z,12.17
2019-05-11T05:27:45.106Z,12.18
2019-05-11T05:30:13.179Z,12.18
2019-05-11T05:32:39.950Z,12.21
2019-05-11T05:35:07.889Z,12.28
2019-05-11T05:37:35.273Z,12.42
2019-05-11T05:40:03.084Z,12.63
2019-05-11T05:42:29.866Z,12.98
2019-05-11T05:44:56.682Z,13.18
2019-05-11T05:47:23.455Z,13.28
2019-05-11T05:49:50.721Z,13.37
2019-05-11T05:52:17.602Z,13.44
2019-05-11T05:54:44.315Z,13.50
2019-05-11T05:57:11.072Z,13.53
2019-05-11T05:59:40.969Z,13.54
2019-05-11T06:02:08.110Z,13.52
2019-05-11T06:04:34.899Z,13.52
2019-05-11T06:07:01.643Z,13.56
2019-05-11T06:09:28.406Z,13.58
2019-05-11T06:11:55.178Z,13.65
2019-05-11T06:14:21.959Z,13.70
2019-05-11T06:16:48.818Z,13.79
2019-05-11T06:19:15.678Z,13.91
2019-05-11T06:21:42.572Z,13.95
2019-05-11T06:24:09.470Z,14.03
2019-05-11T06:26:36.235Z,14.10
2019-05-11T06:29:03.025Z,14.12
2019-05-11T06:31:31.689Z,14.12
2019-05-11T06:34:00.432Z,14.15
2019-05-11T06:36:28.044Z,14.15
2019-05-11T06:38:54.928Z,14.14
2019-05-11T06:41:21.707Z,14.17
2019-05-11T06:44:01.260Z,14.19
2019-05-11T06:46:17.596Z,14.25
2019-05-11T06:48:44.384Z,14.28
2019-05-11T06:51:11.320Z,14.32
2019-05-11T06:53:39.125Z,14.34
2019-05-11T06:56:06.092Z,14.34
2019-05-11T06:58:32.956Z,14.37
2019-05-11T07:00:59.717Z,14.47
2019-05-11T07:03:26.476Z,14.50
2019-05-11T07:05:53.365Z,14.50
2019-05-11T07:08:20.240Z,14.53
2019-05-11T07:10:47.087Z,14.60
2019-05-11T07:13:14.285Z,14.65
2019-05-11T07:15:41.273Z,14.67
2019-05-11T07:18:08.038Z,14.70
2019-05-11T07:20:49.599Z,14.70
2019-05-11T07:23:03.952Z,14.76
2019-05-11T07:25:31.200Z,14.93
2019-05-11T07:27:58.047Z,15.03
2019-05-11T07:30:24.944Z,15.09
2019-05-11T07:32:51.710Z,15.19
2019-05-11T07:35:18.902Z,15.16
2019-05-11T07:37:47.891Z,15.13
2019-05-11T07:40:14.834Z,15.13
2019-05-11T07:42:41.962Z,15.10
2019-05-11T07:45:09.758Z,15.06
2019-05-11T07:47:38.463Z,15.03
2019-05-11T07:50:08.265Z,14.98
2019-05-11T07:52:37.686Z,14.96
2019-05-11T07:55:04.907Z,14.92
2019-05-11T07:57:31.679Z,14.95
2019-05-11T07:59:58.483Z,14.95
2019-05-11T08:02:25.467Z,14.98
2019-05-11T08:04:52.246Z,15.01
2019-05-11T08:07:19.004Z,15.03
2019-05-11T08:09:48.126Z,15.03
2019-05-11T08:12:15.293Z,15.11
2019-05-11T08:14:56.609Z,15.23
2019-05-11T08:17:11.064Z,15.44
2019-05-11T08:19:38.493Z,15.62
2019-05-11T08:22:05.687Z,15.65
2019-05-11T08:24:32.505Z,15.58
2019-05-11T08:26:59.326Z,15.55
2019-05-11T08:29:27.849Z,15.54
2019-05-11T08:31:57.764Z,15.57
2019-05-11T08:34:24.241Z,15.60
2019-05-11T08:36:51.126Z,15.58
2019-05-11T08:39:18.331Z,15.52
2019-05-11T08:41:45.495Z,15.47
2019-05-11T08:44:12.413Z,15.42
2019-05-11T08:46:39.363Z,15.42
2019-05-11T08:49:08.673Z,15.39
2019-05-11T08:51:38.381Z,15.38
2019-05-11T08:54:04.717Z,15.40
2019-05-11T08:56:31.736Z,15.39
2019-05-11T08:58:59.022Z,15.42
2019-05-11T09:01:25.969Z,15.50
2019-05-11T09:03:53.250Z,15.77
2019-05-11T09:06:20.044Z,16.01
2019-05-11T09:08:49.280Z,16.10
2019-05-11T09:11:19.195Z,16.16
2019-05-11T09:13:48.637Z,16.22
2019-05-11T09:16:15.852Z,16.32
2019-05-11T09:18:47.945Z,16.47
2019-05-11T09:21:15.038Z,16.48
2019-05-11T09:23:41.822Z,16.33
2019-05-11T09:26:09.034Z,16.20
2019-05-11T09:28:38.267Z,16.13
2019-05-11T09:31:04.914Z,16.11
2019-05-11T09:33:31.850Z,16.07
2019-05-11T09:35:58.747Z,16.02
2019-05-11T09:38:27.750Z,15.92
2019-05-11T09:40:55.019Z,15.89
2019-05-11T09:43:21.961Z,15.91
2019-05-11T09:45:51.906Z,15.96
2019-05-11T09:48:18.175Z,15.94
2019-05-11T09:50:45.012Z,15.98
2019-05-11T09:53:11.842Z,15.97
2019-05-11T09:55:38.984Z,15.90
2019-05-11T09:58:08.349Z,15.90
2019-05-11T10:00:35.214Z,15.85
2019-05-11T10:03:08.278Z,15.78
2019-05-11T10:05:34.901Z,15.76
2019-05-11T10:08:01.806Z,15.79
2019-05-11T10:10:29.178Z,15.78
2019-05-11T10:12:59.032Z,15.79
2019-05-11T10:15:27.983Z,15.81
2019-05-11T10:17:55.509Z,15.86
2019-05-11T10:20:22.950Z,15.83
2019-05-11T10:22:50.414Z,15.89
2019-05-11T10:25:18.321Z,15.91
2019-05-11T10:27:45.763Z,15.90
2019-05-11T10:30:13.225Z,15.88
2019-05-11T10:32:41.457Z,15.86
2019-05-11T10:35:09.082Z,15.85
2019-05-11T10:37:38.693Z,15.77
2019-05-11T10:40:06.048Z,15.74
2019-05-11T10:42:32.848Z,15.76
2019-05-11T10:44:59.989Z,15.81
2019-05-11T10:47:27.817Z,15.84
2019-05-11T10:49:57.707Z,15.84
2019-05-11T10:52:24.138Z,15.83
2019-05-11T10:54:51.260Z,15.86
2019-05-11T10:57:19.027Z,15.90
2019-05-11T10:59:45.873Z,15.96
2019-05-11T11:02:13.219Z,15.99
2019-05-11T11:04:40.180Z,16.03
2019-05-11T11:07:07.803Z,16.09
2019-05-11T11:09:35.379Z,16.15
2019-05-11T11:12:03.049Z,16.29
2019-05-11T11:14:30.224Z,16.32
2019-05-11T11:16:58.340Z,16.32
2019-05-11T11:19:25.787Z,16.33
2019-05-11T11:21:52.583Z,16.33
2019-05-11T11:24:19.630Z,16.43
2019-05-11T11:26:48.647Z,16.63
2019-05-11T11:29:17.976Z,16.75
2019-05-11T11:31:45.032Z,16.65
2019-05-11T11:34:12.330Z,16.57
2019-05-11T11:36:40.299Z,16.55
2019-05-11T11:39:08.363Z,16.56
2019-05-11T11:41:37.766Z,16.51
2019-05-11T11:44:05.066Z,16.45
2019-05-11T11:46:31.900Z,16.37
2019-05-11T11:48:59.263Z,16.28
2019-05-11T11:51:25.989Z,16.21
2019-05-11T11:53:53.245Z,16.25
2019-05-11T11:56:20.100Z,16.36
2019-05-11T11:58:48.746Z,16.55
2019-05-11T12:01:18.821Z,16.74
2019-05-11T12:03:45.510Z,17.06
2019-05-11T12:06:12.349Z,17.35
2019-05-11T12:08:39.755Z,17.33
2019-05-11T12:11:07.923Z,17.43
2019-05-11T12:13:35.123Z,17.74
2019-05-11T12:16:02.235Z,18.02
2019-05-11T12:18:29.407Z,17.86
2019-05-11T12:20:58.404Z,17.63
2019-05-11T12:23:25.620Z,17.62
2019-05-11T12:25:52.709Z,17.91
2019-05-11T12:28:19.662Z,17.97
2019-05-11T12:30:48.110Z,18.15
2019-05-11T12:33:15.386Z,18.11
2019-05-11T12:35:42.439Z,18.34
2019-05-11T12:38:13.438Z,18.25
2019-05-11T12:40:40.509Z,17.95
2019-05-11T12:43:08.291Z,17.62
2019-05-11T12:45:37.501Z,17.17
2019-05-11T12:48:09.049Z,16.83
2019-05-11T12:50:37.894Z,16.42
2019-05-11T12:53:04.928Z,16.16
2019-05-11T12:55:31.797Z,16.00
2019-05-11T12:57:58.949Z,15.86
2019-05-11T13:00:30.441Z,15.79
2019-05-11T13:02:55.016Z,15.76
2019-05-11T13:05:24.074Z,15.67
2019-05-11T13:07:50.820Z,15.74
2019-05-11T13:10:20.895Z,15.76
2019-05-11T13:12:49.220Z,15.79
2019-05-11T13:15:17.550Z,15.83
2019-05-11T13:17:44.566Z,15.95
2019-05-11T13:20:12.951Z,16.27
2019-05-11T13:22:40.458Z,16.77
2019-05-11T13:25:08.590Z,17.18
2019-05-11T13:27:35.636Z,17.56
2019-05-11T13:30:07.957Z,18.11
2019-05-11T13:32:38.749Z,17.55
2019-05-11T13:35:08.944Z,17.15
2019-05-11T13:37:35.493Z,16.92
2019-05-11T13:40:07.734Z,16.75
2019-05-11T13:42:35.368Z,16.12
2019-05-11T13:45:05.466Z,15.17
2019-05-11T13:47:32.419Z,14.61
2019-05-11T13:49:59.285Z,14.43
2019-05-11T13:52:28.544Z,14.38
2019-05-11T13:54:55.513Z,14.35
2019-05-11T13:57:22.354Z,14.34
2019-05-11T13:59:49.148Z,14.19
2019-05-11T14:02:17.994Z,14.13
2019-05-11T14:04:44.971Z,14.09
2019-05-11T14:07:11.727Z,13.87
2019-05-11T14:09:38.641Z,13.79
2019-05-11T14:12:07.598Z,13.68
2019-05-11T14:14:37.754Z,13.68
2019-05-11T14:17:04.907Z,13.55
2019-05-11T14:19:32.031Z,13.48
2019-05-11T14:21:59.094Z,13.48
2019-05-11T14:24:30.600Z,13.44
2019-05-11T14:26:58.047Z,13.42
2019-05-11T14:29:28.104Z,13.47
2019-05-11T14:31:58.018Z,13.55
2019-05-11T14:34:25.435Z,13.59
2019-05-11T14:36:53.781Z,13.96
2019-05-11T14:39:20.939Z,14.46
2019-05-11T14:41:48.745Z,14.79
2019-05-11T14:44:17.964Z,14.79
2019-05-11T14:46:44.537Z,14.91
2019-05-11T14:49:11.288Z,15.23
2019-05-11T14:51:39.140Z,15.48
2019-05-11T14:54:08.144Z,15.69
2019-05-11T14:56:35.144Z,15.67
2019-05-11T14:59:02.223Z,15.58
2019-05-11T15:01:29.242Z,15.50
2019-05-11T15:03:56.232Z,15.52
2019-05-11T15:06:23.743Z,15.56
2019-05-11T15:08:50.624Z,15.38
2019-05-11T15:11:19.214Z,15.27
2019-05-11T15:13:48.555Z,15.15
2019-05-11T15:16:15.011Z,15.06
2019-05-11T15:18:42.277Z,14.98
2019-05-11T15:21:09.244Z,14.91
2019-05-11T15:23:37.805Z,14.85
2019-05-11T15:26:07.225Z,14.77
2019-05-11T15:28:33.449Z,14.53
2019-05-11T15:31:00.603Z,14.23
2019-05-11T15:33:28.530Z,13.90
2019-05-11T15:35:55.675Z,13.71
2019-05-11T15:38:22.524Z,13.50
2019-05-11T15:40:49.307Z,13.29
2019-05-11T15:43:17.958Z,13.19
2019-05-11T15:45:44.882Z,13.14
2019-05-11T15:48:11.697Z,13.08
2019-05-11T15:50:40.263Z,13.08
2019-05-11T15:53:08.740Z,13.07
2019-05-11T15:55:38.242Z,13.09
2019-05-11T15:58:04.792Z,13.13
2019-05-11T16:00:31.559Z,13.14
2019-05-11T16:02:58.342Z,13.06
2019-05-11T16:05:25.185Z,12.98
2019-05-11T16:07:53.779Z,12.87
2019-05-11T16:10:20.526Z,12.86
2019-05-11T16:12:48.553Z,12.82
2019-05-11T16:15:19.201Z,12.79
2019-05-11T16:17:45.738Z,12.81
2019-05-11T16:20:12.963Z,12.76
2019-05-11T16:22:39.845Z,12.65
2019-05-11T16:25:08.566Z,12.60
2019-05-11T16:27:38.012Z,12.59
2019-05-11T16:30:09.521Z,12.50
2019-05-11T16:32:38.630Z,12.52
2019-05-11T16:35:08.798Z,12.42
2019-05-11T16:37:38.015Z,12.36
2019-05-11T16:40:07.169Z,12.42
2019-05-11T16:42:34.141Z,12.40
2019-05-11T16:45:01.320Z,12.36
2019-05-11T16:47:28.501Z,12.34
2019-05-11T16:49:57.867Z,12.34
2019-05-11T16:52:24.209Z,12.28
2019-05-11T16:54:52.875Z,12.17
2019-05-11T16:57:20.069Z,12.13
2019-05-11T16:59:48.417Z,12.11
2019-05-11T17:02:15.465Z,12.13
2019-05-11T17:04:42.190Z,12.13
2019-05-11T17:07:09.073Z,12.09
2019-05-11T17:09:37.871Z,12.02
2019-05-11T17:12:04.669Z,11.96
2019-05-11T17:14:31.749Z,11.88
2019-05-11T17:16:58.702Z,11.93
2019-05-11T17:19:39.461Z,11.97
2019-05-11T17:21:54.811Z,11.88
2019-05-11T17:24:24.554Z,11.88
2019-05-11T17:26:51.329Z,11.76
2019-05-11T17:29:18.679Z,11.76
2019-05-11T17:31:48.328Z,11.78
2019-05-11T17:34:17.914Z,11.78
2019-05-11T17:36:43.456Z,11.79
2019-05-11T17:39:10.370Z,11.82
2019-05-11T17:41:38.654Z,11.79
2019-05-11T17:44:08.035Z,11.76
2019-05-11T17:46:35.043Z,11.70
2019-05-11T17:49:01.839Z,11.65
2019-05-11T17:51:28.763Z,11.63
2019-05-11T17:53:55.603Z,11.62
2019-05-11T17:56:24.451Z,11.64
2019-05-11T17:58:51.286Z,11.66
2019-05-11T18:01:18.755Z,11.66
2019-05-11T18:03:46.684Z,11.60
2019-05-11T18:06:13.786Z,11.56
2019-05-11T18:08:41.073Z,11.53
2019-05-11T18:11:08.796Z,11.51
2019-05-11T18:13:35.646Z,11.52
2019-05-11T18:16:02.484Z,11.43
2019-05-11T18:18:29.786Z,11.43
2019-05-11T18:21:02.472Z,11.47
2019-05-11T18:23:29.334Z,11.47
2019-05-11T18:25:59.366Z,11.41
2019-05-11T18:28:28.999Z,11.43
2019-05-11T18:30:55.281Z,11.35
2019-05-11T18:33:22.928Z,11.28
2019-05-11T18:35:49.826Z,11.25
2019-05-11T18:38:17.841Z,11.21
2019-05-11T18:40:44.909Z,11.21
2019-05-11T18:43:12.016Z,11.25
2019-05-11T18:45:38.918Z,11.24
2019-05-11T18:48:08.042Z,11.21
2019-05-11T18:50:35.136Z,11.18
2019-05-11T18:53:02.500Z,11.20
2019-05-11T18:55:29.336Z,11.15
2019-05-11T18:57:58.081Z,11.15
2019-05-11T19:00:25.114Z,11.11
2019-05-11T19:02:51.871Z,11.09
2019-05-11T19:05:18.811Z,10.94
2019-05-11T19:07:48.198Z,10.92
2019-05-11T19:10:15.671Z,10.91
2019-05-11T19:12:42.448Z,10.86
2019-05-11T19:15:10.123Z,10.77
2019-05-11T19:17:38.470Z,10.72
2019-05-11T19:20:08.413Z,10.74
2019-05-11T19:22:37.030Z,10.71
2019-05-11T19:25:09.047Z,10.65
2019-05-11T19:27:36.117Z,10.61
2019-05-11T19:30:07.992Z,10.62
2019-05-11T19:32:38.044Z,10.59
2019-05-11T19:35:05.074Z,10.51
2019-05-11T19:37:32.030Z,10.47
2019-05-11T19:39:58.993Z,10.50
2019-05-11T19:42:25.840Z,10.49
2019-05-11T19:44:52.612Z,10.44
2019-05-11T19:47:19.968Z,10.46
2019-05-11T19:49:47.825Z,10.50
2019-05-11T19:52:14.801Z,10.52
2019-05-11T19:54:42.018Z,10.52
2019-05-11T19:57:08.774Z,10.45
2019-05-11T19:59:35.664Z,10.43
2019-05-11T20:02:02.795Z,10.41
2019-05-11T20:04:30.019Z,10.39
2019-05-11T20:06:58.213Z,10.39
2019-05-11T20:09:25.339Z,10.42
2019-05-11T20:11:52.630Z,10.44
2019-05-11T20:14:19.463Z,10.46
2019-05-11T20:16:47.824Z,10.44
2019-05-11T20:19:14.631Z,10.41
2019-05-11T20:21:41.416Z,10.41
2019-05-11T20:24:08.730Z,10.39
2019-05-11T20:26:37.727Z,10.37
2019-05-11T20:29:04.325Z,10.35
2019-05-11T20:31:31.100Z,10.35
2019-05-11T20:33:58.211Z,10.41
2019-05-11T20:36:25.657Z,10.43
2019-05-11T20:38:52.569Z,10.46
2019-05-11T20:41:19.420Z,10.39
2019-05-11T20:43:46.336Z,10.43
2019-05-11T20:46:13.135Z,10.40
2019-05-11T20:48:39.920Z,10.34
2019-05-11T20:51:08.194Z,10.34
2019-05-11T20:53:38.709Z,10.32
2019-05-11T20:56:05.922Z,10.32
2019-05-11T20:58:34.678Z,10.33
2019-05-11T21:01:02.173Z,10.38
2019-05-11T21:03:29.005Z,10.46
2019-05-11T21:05:55.799Z,10.40
2019-05-11T21:08:22.855Z,10.37
2019-05-11T21:10:50.091Z,10.30
2019-05-11T21:13:17.867Z,10.26
2019-05-11T21:15:47.707Z,10.28
2019-05-11T21:18:18.232Z,10.29
2019-05-11T21:20:45.000Z,10.26
2019-05-11T21:23:11.762Z,10.25
2019-05-11T21:25:38.562Z,10.22
2019-05-11T21:28:05.322Z,10.21
2019-05-11T21:30:32.656Z,10.18
2019-05-11T21:32:59.454Z,10.16
2019-05-11T21:35:28.073Z,10.18
2019-05-11T21:37:55.013Z,10.18
2019-05-11T21:40:21.874Z,10.16
2019-05-11T21:42:48.667Z,10.11
2019-05-11T21:45:17.719Z,10.10
2019-05-11T21:47:44.527Z,10.09
2019-05-11T21:50:11.670Z,10.12
2019-05-11T21:52:38.912Z,10.19
2019-05-11T21:55:09.365Z,10.16
2019-05-11T21:57:36.216Z,10.05
2019-05-11T22:00:08.831Z,10.03
2019-05-11T22:02:38.446Z,10.00
2019-05-11T22:05:07.463Z,9.99
2019-05-11T22:07:34.276Z,9.91
2019-05-11T22:10:01.755Z,9.92
2019-05-11T22:12:28.636Z,9.90
2019-05-11T22:14:55.357Z,9.86
2019-05-11T22:17:22.116Z,9.91
2019-05-11T22:19:49.238Z,9.84
2019-05-11T22:22:22.354Z,9.84
2019-05-11T22:24:45.044Z,9.83
2019-05-11T22:27:12.016Z,9.79
2019-05-11T22:29:38.829Z,9.74
2019-05-11T22:32:05.706Z,9.77
2019-05-11T22:34:32.579Z,9.78
2019-05-11T22:36:59.436Z,9.76
2019-05-11T22:39:26.224Z,9.88
2019-05-11T22:41:53.075Z,9.88
2019-05-11T22:44:20.442Z,9.81
2019-05-11T22:46:47.922Z,9.78
2019-05-11T22:49:14.858Z,9.73
2019-05-11T22:51:41.846Z,9.74
2019-05-11T22:54:11.101Z,9.78
2019-05-11T22:56:38.005Z,9.82
2019-05-11T22:59:05.190Z,9.80
2019-05-11T23:01:31.938Z,9.78
2019-05-11T23:03:58.729Z,9.74
2019-05-11T23:06:25.747Z,9.72
2019-05-11T23:08:54.221Z,9.71
2019-05-11T23:11:21.429Z,9.70
2019-05-11T23:13:48.201Z,9.64
2019-05-11T23:16:15.348Z,9.70
2019-05-11T23:18:42.634Z,9.81
2019-05-11T23:21:09.523Z,9.89
2019-05-11T23:23:36.329Z,9.93
2019-05-11T23:26:03.209Z,9.94
2019-05-11T23:28:29.983Z,9.91
2019-05-11T23:30:58.283Z,9.84
2019-05-11T23:33:27.879Z,9.79
2019-05-11T23:35:54.984Z,9.73
2019-05-11T23:38:22.187Z,9.66
2019-05-11T23:40:48.923Z,9.57
2019-05-11T23:43:15.794Z,9.61
2019-05-11T23:45:42.527Z,9.58
2019-05-11T23:48:09.285Z,9.59
2019-05-11T23:50:38.351Z,9.61
2019-05-11T23:53:06.854Z,9.61
2019-05-11T23:55:33.572Z,9.58
2019-05-11T23:58:00.359Z,9.62
